Saint Johnsbury, VT (05819)

3:59 AM EST on January 27, 2015 (GMT -0500)
Lower Waterford | Change Station
CLOSE
Current Station
Personal Weather Station
Location: Lower Waterford, VT
Elevation: 883 ft
Nearby Weather Stations
Active Advisory: Winter Weather Advisory

Elev 883 ft 44.35 °N, 71.90 °W | Updated 4 minutes ago

Overcast
Overcast
15.2 °F
Feels Like 15 °F
N
1.0
Wind Variable Wind from NW
Gusts 2.0 mph

Today
High -- | Low -- °F
--% Chance of Precip.
Yesterday
High -- | Low -- °F
Precip. -- in
7:11 AM 4:50 PM
First Quarter, 52% visible
Pressure 29.90 in
Visibility 10.0 miles
Clouds Overcast 7000 ft
Windchill 15 °F
Dew Point -6 °F
Humidity 37%
Rainfall 0.00 in
Snow Depth Not available.
UV 0 out of 12
Pollen .10 out of 12
Air Quality Not available.
Flu Activity Not available.
METAR KHIE 270852Z AUTO 07013G27KT 10SM OVC070 M11/M23 A2983 RMK AO2 PK WND 09027/0843 SLP124 T11061228 56030

More Conditions Fewer Conditions

Pressure 29.90 in
Visibility 10.0 miles
Clouds Overcast 7000 ft
Windchill 15 °F
Dew Point -6 °F
Humidity 37%
Rainfall 0.00 in
Snow Depth Not available.
UV 0 out of 12
Pollen .10 out of 12
Air Quality Not available.
Flu Activity Not available.
METAR KHIE 270852Z AUTO 07013G27KT 10SM OVC070 M11/M23 A2983 RMK AO2 PK WND 09027/0843 SLP124 T11061228 56030

More Conditions Fewer Conditions

10-Day Weather Forecast

Almanac

Astronomy

Jan. 27, 2015 Rise Set
Actual Time
Civil Twilight
Nautical Twilight
Astronomical Twilight
Moon
Length of Visible Light
Length of Day
Tomorrow will be .
, % of the Moon is Illuminated

Today's Extremes

State Highs State Lows

Community

WunderPhotos

Upload Photos

1,790,555 photos uploaded!

WunderBlogs® & News

Nearby

Air Quality

  Air Quality AQ Index Pollutant
Not available.

Snow Depth

Station Depth Elevation

Earthquake Activity

City Distance Mag. Time & Date
Minimum magnitude displayed is 2.5.

Coastal Water Temperatures

Place Temperature

Nearby Weather Stations